Armstrong, Florida
Current Conditions -  °F | °C
As of 3:58 AM on Monday 20 Oct 2014 (Local Time) from KSGJ Reporting Station
Few Clouds Few Clouds  
Wind Chill: 23°   Ceiling: Unl
Heat Index: 23°   Visibility: 10mi
Dew Point: 17°   Wind: 9mph
Humidity: 71%   Direction: 90°E
Pressure: 30.05"   Gusts: NA
Location:  29.7919°N, 81.4499°W
Report Text: KSGJ 200758Z AUTO 09008KT 10SM FEW046 23/17 A3005 RMK AO2 SLP175 T02280172
Loading
Personal Weather Stations






























Interactive Weather Map
Tropical Storm Tracking
New forecast layout! Learn more

10-Day Weather Forecast

Advertisements
Track Severe Weather on mobile